Time;durP1;ratioP1;P1;durP2;ratioP2;P2;SDS_P1;SDS_P2;PMS_P1;PMS_P2;Temp;Humidity;BMP_temperature;BMP_pressure;BME280_temperature;BME280_humidity;BME280_pressure;Samples;Min_cycle;Max_cycle;Signal;HPM_P1;HPM_P2
2021/06/25 00:00:17;;;;;;;23.18;5.42;;;;;;;23.49;69.64;99553.09;1717901;83;21005;-70
2021/06/25 00:02:43;;;;;;;15.05;5.12;;;;;;;23.51;69.64;99555.52;1721894;83;21056;-70
2021/06/25 00:05:10;;;;;;;18.98;5.37;;;;;;;23.52;69.53;99551.48;1719611;82;21170;-70
2021/06/25 00:07:38;;;;;;;18.15;4.97;;;;;;;23.50;69.70;99546.27;1721099;83;21040;-70
2021/06/25 00:10:12;;;;;;;15.50;4.30;;;;;;;23.50;69.78;99546.88;1717184;83;21818;-71
2021/06/25 00:12:39;;;;;;;26.77;5.37;;;;;;;23.49;69.75;99546.06;1718344;83;21475;-72
2021/06/25 00:15:09;;;;;;;18.57;5.78;;;;;;;23.51;69.79;99547.09;1719584;83;21016;-71
2021/06/25 00:17:35;;;;;;;21.12;5.35;;;;;;;23.53;69.71;99544.05;1716268;83;21047;-70
2021/06/25 00:20:02;;;;;;;22.70;5.45;;;;;;;23.54;69.60;99550.48;1697068;83;21568;-70
2021/06/25 00:22:30;;;;;;;22.48;5.62;;;;;;;23.55;69.53;99545.05;1721849;82;21013;-70
2021/06/25 00:25:02;;;;;;;14.78;5.58;;;;;;;23.53;69.62;99548.27;1716781;83;21060;-70
2021/06/25 00:27:29;;;;;;;24.98;5.92;;;;;;;23.53;69.66;99551.08;1709698;83;22138;-70
2021/06/25 00:29:56;;;;;;;17.90;5.05;;;;;;;23.51;69.88;99547.87;1711719;83;21341;-71
2021/06/25 00:32:36;;;;;;;16.27;5.00;;;;;;;23.46;70.06;99544.88;1714894;82;21509;-69
2021/06/25 00:35:07;;;;;;;29.32;5.50;;;;;;;23.46;70.10;99548.29;1719113;83;21595;-71
2021/06/25 00:37:34;;;;;;;15.93;4.25;;;;;;;23.43;70.29;99538.67;1719957;83;21531;-71
2021/06/25 00:40:00;;;;;;;15.43;4.70;;;;;;;23.38;70.44;99536.85;1695343;83;21036;-71
2021/06/25 00:42:27;;;;;;;14.25;4.83;;;;;;;23.34;70.61;99533.45;1721607;82;21020;-71
2021/06/25 00:44:53;;;;;;;11.93;4.75;;;;;;;23.27;70.92;99529.27;1711130;83;21540;-71
2021/06/25 00:47:19;;;;;;;13.50;4.70;;;;;;;23.20;71.17;99523.70;1717478;83;21059;-71
2021/06/25 00:49:47;;;;;;;13.48;5.22;;;;;;;23.10;71.65;99521.91;1716180;82;21532;-71
2021/06/25 00:52:19;;;;;;;15.48;4.80;;;;;;;23.05;71.98;99517.30;1721510;83;21039;-71
2021/06/25 00:54:47;;;;;;;14.23;4.60;;;;;;;23.04;71.97;99518.52;1695838;83;21039;-71
2021/06/25 00:57:16;;;;;;;11.12;4.08;;;;;;;23.05;71.91;99518.11;1696338;83;21032;-71
2021/06/25 00:59:42;;;;;;;14.13;5.10;;;;;;;23.07;71.82;99518.52;1724367;82;21126;-71
2021/06/25 01:02:10;;;;;;;12.03;4.62;;;;;;;23.09;71.73;99523.13;1724238;82;21765;-72
2021/06/25 01:04:37;;;;;;;25.65;5.62;;;;;;;23.10;71.64;99521.91;1721584;83;21587;-71
2021/06/25 01:07:10;;;;;;;22.42;5.40;;;;;;;23.12;71.64;99525.71;1718349;83;21682;-70
2021/06/25 01:09:38;;;;;;;24.27;6.40;;;;;;;23.14;71.64;99515.47;1717557;83;20997;-71
2021/06/25 01:12:06;;;;;;;28.15;6.28;;;;;;;23.16;71.52;99512.47;1692592;83;21087;-71
2021/06/25 01:14:33;;;;;;;32.15;5.75;;;;;;;23.18;71.31;99507.84;1716821;83;21108;-70
2021/06/25 01:17:02;;;;;;;29.15;5.45;;;;;;;23.18;71.22;99510.05;1721811;83;21009;-71
2021/06/25 01:19:30;;;;;;;23.15;6.47;;;;;;;23.19;71.13;99513.65;1716257;82;21115;-71
2021/06/25 01:21:58;;;;;;;16.95;6.08;;;;;;;23.19;71.20;99508.03;1721109;83;21524;-71
2021/06/25 01:24:25;;;;;;;18.98;5.05;;;;;;;23.18;71.15;99507.84;1674883;83;21505;-72
2021/06/25 01:26:53;;;;;;;21.10;5.35;;;;;;;23.17;71.14;99500.60;1718614;83;21036;-72
2021/06/25 01:29:21;;;;;;;21.12;5.42;;;;;;;23.18;71.09;99500.82;1721572;83;21001;-71
2021/06/25 01:31:49;;;;;;;13.85;4.83;;;;;;;23.19;70.95;99502.41;1723589;82;21008;-72
2021/06/25 01:34:15;;;;;;;15.63;4.53;;;;;;;23.23;70.70;99503.98;1647134;84;21063;-71
2021/06/25 01:36:42;;;;;;;21.02;5.55;;;;;;;23.29;70.52;99507.19;1686305;84;21019;-71
2021/06/25 01:39:08;;;;;;;23.98;5.40;;;;;;;23.34;70.29;99508.16;1689436;84;21124;-71
2021/06/25 01:41:39;;;;;;;19.07;5.30;;;;;;;23.38;70.11;99505.34;1690257;84;20991;-71
2021/06/25 01:44:06;;;;;;;29.27;5.33;;;;;;;23.44;69.93;99508.56;1681953;84;21535;-71
2021/06/25 01:46:33;;;;;;;8.95;4.28;;;;;;;23.48;69.82;99507.93;1662702;84;21030;-71
2021/06/25 01:49:01;;;;;;;20.43;4.78;;;;;;;23.53;69.77;99508.91;1690310;84;21039;-71
2021/06/25 01:51:28;;;;;;;17.37;5.12;;;;;;;23.58;69.78;99512.70;1684675;84;21067;-70
2021/06/25 01:53:58;;;;;;;28.12;5.72;;;;;;;23.61;69.67;99511.06;1690348;84;21034;-70
2021/06/25 01:56:25;;;;;;;19.32;4.95;;;;;;;23.59;69.12;99503.66;1691537;83;20999;-70
2021/06/25 01:58:55;;;;;;;24.05;5.97;;;;;;;23.49;68.87;99502.49;1683805;83;21460;-69
2021/06/25 02:01:21;;;;;;;17.52;5.28;;;;;;;23.38;69.00;99501.12;1676552;84;20999;-70
2021/06/25 02:03:57;;;;;;;13.60;5.40;;;;;;;23.27;69.27;99491.33;1663001;85;21051;-71
2021/06/25 02:06:22;;;;;;;23.83;5.87;;;;;;;23.14;69.99;99494.40;1686645;84;21351;-71
2021/06/25 02:08:49;;;;;;;15.85;5.15;;;;;;;23.03;70.58;99497.27;1684061;84;21645;-70
2021/06/25 02:11:17;;;;;;;14.55;5.08;;;;;;;22.93;71.20;99501.69;1690334;84;21019;-71
2021/06/25 02:13:43;;;;;;;21.93;5.22;;;;;;;22.90;71.77;99503.91;1690352;84;21031;-71
2021/06/25 02:16:16;;;;;;;10.93;4.80;;;;;;;22.88;72.03;99502.91;1690144;84;22274;-71
2021/06/25 02:18:48;;;;;;;22.07;5.62;;;;;;;22.89;72.16;99503.13;1678490;84;21290;-70
2021/06/25 02:21:15;;;;;;;25.62;6.28;;;;;;;22.91;72.66;99505.53;1690245;84;21574;-70
2021/06/25 02:23:43;;;;;;;15.00;5.05;;;;;;;22.83;72.95;99511.75;1690263;84;21536;-71
2021/06/25 02:26:09;;;;;;;12.75;4.67;;;;;;;22.79;73.32;99517.99;1690462;84;21514;-70
2021/06/25 02:28:37;;;;;;;11.83;4.60;;;;;;;22.81;73.26;99521.20;1681648;84;21774;-72
2021/06/25 02:31:03;;;;;;;12.93;4.40;;;;;;;22.83;73.24;99528.59;1681697;84;21103;-70
2021/06/25 02:33:30;;;;;;;19.32;5.92;;;;;;;22.88;72.79;99526.00;1690235;84;21020;-70
2021/06/25 02:36:09;;;;;;;15.30;5.65;;;;;;;22.89;72.64;99530.40;1719519;83;21485;-70
2021/06/25 02:38:35;;;;;;;17.70;6.58;;;;;;;22.93;72.66;99536.80;1714669;83;21082;-70
2021/06/25 02:41:12;;;;;;;14.75;5.80;;;;;;;22.95;72.47;99527.37;1720737;82;21024;-70
2021/06/25 02:43:39;;;;;;;15.43;6.22;;;;;;;22.94;72.30;99535.02;1722671;82;21146;-70
2021/06/25 02:46:15;;;;;;;17.87;6.17;;;;;;;22.91;72.17;99530.80;1723821;82;21067;-70
2021/06/25 02:48:42;;;;;;;14.45;5.92;;;;;;;22.83;72.48;99523.80;1709197;83;21078;-71
2021/06/25 02:51:16;;;;;;;19.05;5.53;;;;;;;22.75;72.77;99527.83;1716033;83;20985;-70
2021/06/25 02:53:43;;;;;;;18.85;5.60;;;;;;;22.73;72.91;99534.44;1719291;83;21156;-72
2021/06/25 02:56:09;;;;;;;22.05;6.20;;;;;;;22.70;73.17;99540.86;1723858;83;21004;-70
2021/06/25 02:58:36;;;;;;;15.03;5.67;;;;;;;22.67;73.51;99534.66;1720596;82;21075;-70
2021/06/25 03:01:05;;;;;;;18.80;5.35;;;;;;;22.68;73.61;99536.25;1698193;83;21111;-72
2021/06/25 03:03:40;;;;;;;15.83;5.83;;;;;;;22.69;73.73;99533.66;1719651;83;21029;-70
2021/06/25 03:06:08;;;;;;;11.80;5.27;;;;;;;22.71;74.00;99529.23;1720616;83;21013;-71
2021/06/25 03:08:34;;;;;;;23.90;6.78;;;;;;;22.73;74.04;99523.20;1697994;83;21040;-70
2021/06/25 03:11:01;;;;;;;22.87;6.72;;;;;;;22.78;74.08;99530.41;1721377;82;21068;-71
2021/06/25 03:13:28;;;;;;;25.88;5.90;;;;;;;22.80;74.31;99535.84;1723913;82;21051;-69
2021/06/25 03:15:56;;;;;;;22.62;5.80;;;;;;;22.83;74.57;99528.59;1723772;82;21548;-71
2021/06/25 03:18:27;;;;;;;20.88;6.28;;;;;;;22.85;74.90;99536.83;1715977;83;21140;-70
2021/06/25 03:20:55;;;;;;;15.60;6.22;;;;;;;22.88;75.32;99530.22;1721134;83;21043;-71
2021/06/25 03:23:22;;;;;;;15.00;5.62;;;;;;;22.92;75.36;99536.61;1723746;82;21024;-71
2021/06/25 03:25:48;;;;;;;24.85;7.75;;;;;;;22.91;75.54;99527.38;1718307;82;21032;-71
2021/06/25 03:28:16;;;;;;;14.98;6.08;;;;;;;22.91;75.69;99527.38;1721462;83;21012;-71
2021/06/25 03:30:44;;;;;;;27.07;7.67;;;;;;;22.92;75.95;99522.56;1718878;83;21599;-70
2021/06/25 03:33:19;;;;;;;22.35;6.65;;;;;;;22.94;75.98;99527.98;1718374;83;21032;-69
2021/06/25 03:35:45;;;;;;;19.73;6.05;;;;;;;22.95;76.11;99520.34;1705884;82;21057;-70
2021/06/25 03:38:15;;;;;;;19.12;6.12;;;;;;;23.03;76.20;99516.30;1710592;83;21533;-70
2021/06/25 03:40:41;;;;;;;28.70;7.22;;;;;;;23.11;76.05;99521.31;1713928;83;21474;-70
2021/06/25 03:43:11;;;;;;;22.87;6.37;;;;;;;23.21;75.83;99519.07;1713893;82;21186;-69
2021/06/25 03:45:39;;;;;;;24.52;6.53;;;;;;;23.32;75.64;99513.39;1708055;83;21029;-70
2021/06/25 03:48:06;;;;;;;24.50;6.15;;;;;;;23.43;75.17;99511.98;1701792;83;21005;-71
2021/06/25 03:50:33;;;;;;;17.73;5.45;;;;;;;23.53;74.71;99504.69;1713418;83;21588;-71
2021/06/25 03:53:00;;;;;;;24.10;4.75;;;;;;;23.59;74.42;99502.27;1714142;82;21048;-70
2021/06/25 03:55:26;;;;;;;22.45;5.30;;;;;;;23.63;74.41;99495.22;1710369;82;21133;-70
2021/06/25 03:57:53;;;;;;;23.05;5.03;;;;;;;23.69;73.94;99494.97;1708235;83;21037;-70
2021/06/25 04:00:36;;;;;;;24.02;5.40;;;;;;;23.73;73.70;99491.52;1700475;82;21011;-70
2021/06/25 04:03:03;;;;;;;18.35;4.70;;;;;;;23.80;73.39;99501.31;1712766;82;21069;-70
2021/06/25 04:05:34;;;;;;;15.35;4.65;;;;;;;23.88;72.60;99495.05;1711519;82;21028;-70
2021/06/25 04:08:06;;;;;;;13.93;3.55;;;;;;;23.96;71.92;99492.97;1686696;83;21068;-71
2021/06/25 04:10:32;;;;;;;18.90;4.00;;;;;;;24.03;71.30;99478.86;1708184;83;21040;-71
2021/06/25 04:12:58;;;;;;;19.82;4.47;;;;;;;24.10;70.63;99481.41;1705077;82;21037;-70
2021/06/25 04:15:25;;;;;;;15.83;5.20;;;;;;;24.18;70.58;99485.20;1696726;83;21528;-70
2021/06/25 04:17:51;;;;;;;11.88;3.77;;;;;;;24.27;69.99;99483.31;1711538;83;21024;-70
2021/06/25 04:20:18;;;;;;;20.68;3.72;;;;;;;24.37;69.39;99487.84;1710350;83;21211;-72
2021/06/25 04:22:47;;;;;;;21.85;4.65;;;;;;;24.47;68.40;99486.95;1713524;82;22136;-71
2021/06/25 04:25:13;;;;;;;23.22;4.50;;;;;;;24.57;67.37;99485.86;1713970;82;21052;-70
2021/06/25 04:27:41;;;;;;;16.45;3.80;;;;;;;24.66;67.02;99477.11;1713985;83;21024;-70
2021/06/25 04:30:18;;;;;;;24.25;4.53;;;;;;;24.76;66.37;99474.58;1713992;83;21084;-71
2021/06/25 04:32:49;;;;;;;15.85;3.95;;;;;;;24.84;65.77;99475.31;1681769;83;21081;-72
2021/06/25 04:35:21;;;;;;;17.27;4.25;;;;;;;24.90;64.98;99471.61;1713802;81;21072;-71
2021/06/25 04:38:01;;;;;;;21.93;4.30;;;;;;;24.99;64.67;99475.97;1713978;82;21016;-71
2021/06/25 04:40:43;;;;;;;14.45;3.27;;;;;;;25.09;64.54;99475.64;1710104;83;21454;-71
2021/06/25 04:43:16;;;;;;;21.12;4.28;;;;;;;25.21;64.44;99474.30;1714182;83;21585;-72
2021/06/25 04:45:44;;;;;;;14.50;3.67;;;;;;;25.30;64.72;99474.56;1714043;83;21133;-72
2021/06/25 04:48:15;;;;;;;16.32;4.15;;;;;;;25.39;64.13;99475.45;1713969;83;22142;-71
2021/06/25 04:50:52;;;;;;;30.65;4.12;;;;;;;25.49;63.10;99473.09;1708737;83;21032;-72
2021/06/25 04:53:20;;;;;;;16.07;4.15;;;;;;;25.62;61.69;99478.17;1713965;82;21600;-72
2021/06/25 04:55:50;;;;;;;19.75;3.98;;;;;;;25.75;61.04;99477.80;1709630;83;21028;-72
2021/06/25 04:58:22;;;;;;;17.32;4.33;;;;;;;25.88;60.65;99481.41;1714049;82;21130;-71
2021/06/25 05:00:50;;;;;;;21.10;3.95;;;;;;;25.99;60.34;99474.20;1710999;83;21103;-72
2021/06/25 05:03:21;;;;;;;21.10;3.92;;;;;;;26.08;60.15;99471.65;1706456;83;21484;-72
2021/06/25 05:05:53;;;;;;;22.20;3.52;;;;;;;26.15;59.89;99476.38;1709301;83;21048;-74
2021/06/25 05:08:23;;;;;;;16.20;3.85;;;;;;;26.19;59.58;99474.27;1695816;83;21079;-72
2021/06/25 05:10:56;;;;;;;22.90;4.67;;;;;;;26.25;59.48;99477.41;1712329;83;21521;-71
2021/06/25 05:13:25;;;;;;;24.45;4.17;;;;;;;26.31;59.42;99467.21;1708366;82;21500;-71
2021/06/25 05:15:56;;;;;;;26.52;3.80;;;;;;;26.42;59.15;99471.91;1702864;82;21009;-71
2021/06/25 05:18:24;;;;;;;31.10;4.40;;;;;;;26.52;58.63;99480.80;1688758;83;21137;-72
2021/06/25 05:20:53;;;;;;;16.57;3.15;;;;;;;26.63;58.43;99481.98;1684919;83;21544;-71
2021/06/25 05:23:20;;;;;;;19.60;4.42;;;;;;;26.71;57.47;99480.65;1685179;83;21524;-72
2021/06/25 05:25:56;;;;;;;17.35;4.47;;;;;;;26.78;56.56;99485.36;1688030;83;21119;-72
2021/06/25 05:28:22;;;;;;;24.18;4.78;;;;;;;26.89;55.60;99498.45;1692541;82;21151;-72
2021/06/25 05:30:49;;;;;;;20.57;4.60;;;;;;;26.99;54.74;99498.86;1709401;82;21580;-72
2021/06/25 05:33:16;;;;;;;20.30;3.95;;;;;;;27.08;54.37;99503.36;1712622;83;21060;-73
2021/06/25 05:35:48;;;;;;;26.52;4.70;;;;;;;27.17;54.51;99499.96;1710919;82;21304;-71
2021/06/25 05:38:17;;;;;;;20.85;4.33;;;;;;;27.26;53.57;99502.81;1712373;83;21049;-71
2021/06/25 05:40:46;;;;;;;23.18;3.60;;;;;;;27.36;53.29;99500.38;1710876;82;21564;-70
2021/06/25 05:43:15;;;;;;;22.05;4.65;;;;;;;27.44;54.05;99500.40;1714530;82;21016;-72
2021/06/25 05:45:44;;;;;;;21.27;4.42;;;;;;;27.55;54.73;99500.78;1713848;82;21643;-72
2021/06/25 05:48:10;;;;;;;36.23;6.35;;;;;;;27.63;54.00;99497.97;1703226;83;21093;-71
2021/06/25 05:50:41;;;;;;;31.35;4.75;;;;;;;27.71;53.48;99500.03;1708869;83;21116;-71
2021/06/25 05:53:15;;;;;;;23.40;4.65;;;;;;;27.79;53.09;99498.63;1711877;83;21053;-73
2021/06/25 05:55:42;;;;;;;24.98;4.53;;;;;;;27.89;53.12;99502.46;1714685;82;21068;-73
2021/06/25 05:58:12;;;;;;;28.12;4.10;;;;;;;27.99;52.75;99502.62;1696908;82;21069;-71
2021/06/25 06:00:46;;;;;;;28.75;3.95;;;;;;;28.07;51.35;99509.70;1709806;83;21294;-72
2021/06/25 06:03:14;;;;;;;33.15;4.17;;;;;;;28.16;51.26;99506.26;1728217;82;21084;-71
2021/06/25 06:05:42;;;;;;;28.98;4.40;;;;;;;28.25;51.23;99512.72;1731029;82;21058;-71
2021/06/25 06:08:15;;;;;;;29.25;4.95;;;;;;;28.32;50.23;99519.59;1695965;83;21025;-71
2021/06/25 06:10:49;;;;;;;30.08;4.40;;;;;;;28.40;50.39;99520.26;1712382;82;21085;-71
2021/06/25 06:13:20;;;;;;;25.95;4.28;;;;;;;28.46;50.33;99521.30;1705042;82;21608;-71
2021/06/25 06:15:49;;;;;;;22.52;3.80;;;;;;;28.55;51.13;99519.26;1715537;82;21036;-70
2021/06/25 06:18:25;;;;;;;28.00;4.70;;;;;;;28.63;50.25;99526.94;1712199;82;21006;-70
2021/06/25 06:20:53;;;;;;;20.10;3.60;;;;;;;28.71;49.72;99526.14;1710217;82;21055;-71
2021/06/25 06:31:38;;;;;;;17.85;3.95;;;;;;;29.01;47.79;99524.94;1693871;83;21651;-72
2021/06/25 06:34:12;;;;;;;21.73;3.90;;;;;;;29.09;47.97;99525.52;1713285;82;21115;-71
2021/06/25 06:36:41;;;;;;;28.30;4.28;;;;;;;29.17;47.78;99533.21;1716062;83;21028;-72
2021/06/25 06:39:13;;;;;;;26.12;4.53;;;;;;;29.26;48.41;99531.11;1720372;83;21127;-72
2021/06/25 06:41:45;;;;;;;14.23;3.77;;;;;;;29.35;46.99;99535.52;1720200;83;21004;-72
2021/06/25 06:44:14;;;;;;;15.40;3.52;;;;;;;29.45;45.98;99544.14;1719595;83;21136;-72
2021/06/25 06:46:42;;;;;;;13.43;3.15;;;;;;;29.53;44.97;99543.48;1720996;83;21020;-72
2021/06/25 06:49:10;;;;;;;11.55;3.12;;;;;;;29.59;43.91;99547.98;1721390;82;21555;-71
2021/06/25 06:51:40;;;;;;;35.15;4.60;;;;;;;29.67;42.78;99557.73;1721000;83;21420;-72
2021/06/25 06:54:09;;;;;;;20.35;3.50;;;;;;;29.72;43.01;99548.66;1721375;83;21473;-73
2021/06/25 06:56:36;;;;;;;15.93;2.98;;;;;;;29.78;43.23;99546.03;1721044;82;21143;-73
2021/06/25 06:59:02;;;;;;;18.77;3.10;;;;;;;29.87;42.64;99545.52;1721069;83;21055;-73
2021/06/25 07:01:32;;;;;;;21.55;3.58;;;;;;;29.95;43.24;99550.36;1721142;82;21000;-73
2021/06/25 07:04:00;;;;;;;17.40;4.40;;;;;;;30.05;43.83;99551.27;1721150;82;21151;-72
2021/06/25 07:06:28;;;;;;;27.98;4.25;;;;;;;30.13;43.70;99551.20;1720912;82;20997;-72
2021/06/25 07:08:55;;;;;;;19.35;3.58;;;;;;;30.23;44.28;99548.50;1720964;83;21043;-73
2021/06/25 07:11:22;;;;;;;15.43;3.27;;;;;;;30.33;45.51;99552.23;1721532;82;21568;-72
2021/06/25 07:14:00;;;;;;;20.02;3.47;;;;;;;30.40;44.06;99544.09;1719856;82;20988;-73
2021/06/25 07:16:42;;;;;;;31.12;4.05;;;;;;;30.48;42.83;99543.41;1713978;83;21011;-72
2021/06/25 07:19:24;;;;;;;25.68;4.42;;;;;;;30.56;43.27;99541.71;1716216;83;21040;-72
2021/06/25 07:22:09;;;;;;;16.62;3.95;;;;;;;30.59;43.73;99547.27;1685067;84;21095;-70
2021/06/25 07:24:35;;;;;;;16.42;4.30;;;;;;;30.67;43.45;99546.42;1709090;83;21063;-71
2021/06/25 07:27:08;;;;;;;22.07;4.65;;;;;;;30.70;42.66;99541.84;1718841;83;21186;-72
2021/06/25 07:29:37;;;;;;;19.52;3.55;;;;;;;30.74;43.37;99545.37;1716647;83;21477;-71
2021/06/25 07:32:06;;;;;;;18.57;3.77;;;;;;;30.80;43.25;99544.13;1718914;82;21095;-72
2021/06/25 07:34:32;;;;;;;15.40;3.87;;;;;;;30.89;43.15;99537.77;1715504;83;21512;-70
2021/06/25 07:37:00;;;;;;;15.28;4.12;;;;;;;30.97;43.50;99540.52;1713011;83;21565;-71
2021/06/25 07:39:28;;;;;;;27.00;4.83;;;;;;;31.01;42.60;99539.77;1710729;82;21843;-71
2021/06/25 07:41:54;;;;;;;21.02;4.72;;;;;;;30.94;43.89;99534.33;1711155;83;21096;-71
2021/06/25 07:44:25;;;;;;;13.58;4.15;;;;;;;30.94;45.62;99531.49;1708021;82;21493;-70
2021/06/25 07:47:20;;;;;;;23.50;4.10;;;;;;;31.02;46.66;99531.39;1693890;83;21028;-73
2021/06/25 07:49:52;;;;;;;22.65;3.90;;;;;;;31.15;45.78;99531.97;1705199;83;21032;-71
2021/06/25 07:52:33;;;;;;;13.43;3.95;;;;;;;31.30;43.57;99527.33;1710028;83;21067;-69
2021/06/25 07:55:07;;;;;;;15.40;4.70;;;;;;;31.43;44.05;99525.04;1710544;82;21068;-71
2021/06/25 07:57:42;;;;;;;20.50;4.97;;;;;;;31.54;42.70;99514.05;1713145;82;21009;-70
2021/06/25 08:00:11;;;;;;;18.20;3.95;;;;;;;31.66;42.73;99512.99;1713638;83;20993;-71
2021/06/25 08:02:43;;;;;;;24.18;5.17;;;;;;;31.73;41.36;99511.29;1713712;82;20998;-70
2021/06/25 08:05:10;;;;;;;13.32;3.85;;;;;;;31.78;41.12;99514.92;1713918;83;21080;-73
2021/06/25 08:07:39;;;;;;;10.38;2.62;;;;;;;31.84;41.40;99516.53;1713543;83;21131;-72
2021/06/25 08:10:09;;;;;;;11.40;3.27;;;;;;;31.92;40.31;99524.17;1713115;83;21020;-72
2021/06/25 08:12:35;;;;;;;9.28;2.60;;;;;;;32.01;38.44;99534.19;1710711;83;21501;-71
2021/06/25 08:15:03;;;;;;;14.33;3.02;;;;;;;32.10;37.54;99529.16;1710385;83;21513;-72
2021/06/25 08:17:31;;;;;;;13.40;2.50;;;;;;;32.19;37.51;99534.86;1713975;82;21048;-72
2021/06/25 08:19:57;;;;;;;16.02;3.10;;;;;;;32.27;37.31;99540.27;1713708;82;21283;-72
2021/06/25 08:22:25;;;;;;;15.08;2.67;;;;;;;32.34;37.78;99533.48;1713525;83;21502;-71
2021/06/25 08:24:53;;;;;;;10.48;3.37;;;;;;;32.42;37.88;99541.88;1713802;82;21315;-71
2021/06/25 08:27:23;;;;;;;20.30;3.25;;;;;;;32.52;36.92;99545.52;1713953;83;21049;-71
2021/06/25 08:29:55;;;;;;;14.90;3.08;;;;;;;32.60;36.40;99547.48;1713976;82;21009;-71
2021/06/25 08:32:23;;;;;;;12.03;3.25;;;;;;;32.65;36.63;99544.00;1712086;82;21254;-72
2021/06/25 08:34:49;;;;;;;16.35;4.60;;;;;;;32.67;37.75;99543.67;1713561;82;20981;-71
2021/06/25 08:37:16;;;;;;;16.90;3.75;;;;;;;32.72;36.31;99546.52;1717255;82;21055;-71
2021/06/25 08:39:42;;;;;;;11.60;3.22;;;;;;;32.76;36.65;99547.80;1718137;83;21520;-72
2021/06/25 08:42:10;;;;;;;18.52;3.92;;;;;;;32.81;37.28;99540.03;1715929;83;21079;-72
2021/06/25 08:44:39;;;;;;;16.12;2.85;;;;;;;32.85;36.07;99537.83;1722472;82;21106;-71
2021/06/25 08:47:08;;;;;;;10.15;3.62;;;;;;;32.84;35.95;99541.93;1711410;83;21052;-72
2021/06/25 08:49:43;;;;;;;15.08;3.42;;;;;;;32.81;35.49;99537.18;1653857;85;21005;-71
2021/06/25 08:52:15;;;;;;;16.40;3.95;;;;;;;32.79;35.45;99536.23;1649783;86;21544;-71
2021/06/25 08:54:47;;;;;;;9.68;2.47;;;;;;;32.86;35.98;99535.13;1647250;86;21031;-73
2021/06/25 08:57:14;;;;;;;16.75;2.67;;;;;;;32.95;34.46;99530.05;1653141;86;21072;-73
2021/06/25 08:59:46;;;;;;;15.23;2.55;;;;;;;33.03;35.46;99524.18;1653033;86;21519;-72
2021/06/25 09:02:14;;;;;;;8.85;2.50;;;;;;;33.11;33.67;99522.47;1660474;85;21042;-72
2021/06/25 09:04:41;;;;;;;10.30;3.10;;;;;;;33.19;33.28;99519.44;1670553;85;21019;-72
2021/06/25 09:07:24;;;;;;;10.53;2.40;;;;;;;33.30;33.57;99518.15;1630686;86;21020;-72
2021/06/25 09:09:53;;;;;;;10.03;2.47;;;;;;;33.39;33.37;99516.05;1651778;86;21149;-72
2021/06/25 09:12:24;;;;;;;9.65;1.92;;;;;;;33.50;32.34;99524.12;1638912;85;21024;-73
2021/06/25 09:15:07;;;;;;;8.03;2.33;;;;;;;33.60;33.13;99516.94;1670529;85;21044;-72
2021/06/25 09:17:55;;;;;;;12.88;2.25;;;;;;;33.67;31.65;99518.06;1654417;86;21119;-73
2021/06/25 09:20:39;;;;;;;15.88;2.80;;;;;;;33.75;31.07;99513.58;1695421;83;21040;-73
2021/06/25 09:23:19;;;;;;;7.37;1.82;;;;;;;33.84;31.37;99511.95;1698752;83;21088;-73
2021/06/25 09:25:58;;;;;;;11.43;2.77;;;;;;;33.94;31.18;99512.69;1711904;83;21028;-73
2021/06/25 09:28:36;;;;;;;8.93;2.10;;;;;;;33.99;29.55;99509.97;1714483;82;21046;-72
2021/06/25 09:31:22;;;;;;;7.80;1.87;;;;;;;33.98;28.70;99513.31;1718356;83;21088;-72
2021/06/25 09:33:50;;;;;;;15.43;1.92;;;;;;;34.04;27.18;99514.22;1721575;83;21052;-73
2021/06/25 09:36:26;;;;;;;33.15;3.37;;;;;;;34.10;26.46;99512.94;1720724;83;21785;-71
2021/06/25 09:39:14;;;;;;;24.72;2.95;;;;;;;34.17;27.61;99512.55;1711954;83;21051;-70
2021/06/25 09:41:43;;;;;;;27.82;3.42;;;;;;;34.25;28.12;99514.45;1711262;83;21060;-72
2021/06/25 09:44:16;;;;;;;15.08;2.15;;;;;;;34.19;28.29;99507.17;1710839;83;21505;-72
2021/06/25 09:46:53;;;;;;;20.05;3.60;;;;;;;34.11;28.23;99507.36;1694271;82;21024;-76
2021/06/25 09:49:28;;;;;;;20.97;3.77;;;;;;;33.98;29.37;99512.66;1711966;83;21136;-69
2021/06/25 09:52:05;;;;;;;32.05;5.15;;;;;;;33.87;30.51;99507.50;1710365;83;21071;-76
2021/06/25 09:54:31;;;;;;;22.15;3.60;;;;;;;33.82;32.22;99501.02;1694525;83;21021;-72
2021/06/25 09:57:12;;;;;;;9.00;2.27;;;;;;;33.80;32.70;99505.61;1683900;85;21048;-72
2021/06/25 10:00:10;;;;;;;11.35;2.05;;;;;;;33.82;30.95;99498.79;1682091;85;21032;-71
2021/06/25 10:02:38;;;;;;;9.65;1.62;;;;;;;33.83;29.84;99501.81;1742039;82;20987;-71
2021/06/25 10:05:17;;;;;;;10.35;2.02;;;;;;;33.74;30.37;99503.44;1739603;82;21114;-72
2021/06/25 10:07:43;;;;;;;11.50;1.82;;;;;;;33.59;32.12;99492.53;1712952;82;21520;-73
2021/06/25 10:10:10;;;;;;;11.50;2.40;;;;;;;33.52;33.57;99492.23;1708253;83;21092;-73
2021/06/25 10:12:43;;;;;;;16.12;2.02;;;;;;;33.55;30.68;99489.84;1712315;82;21012;-73
2021/06/25 10:15:12;;;;;;;15.80;1.82;;;;;;;33.69;30.39;99487.59;1714007;83;21139;-72
2021/06/25 10:17:41;;;;;;;9.90;2.30;;;;;;;33.84;30.83;99487.05;1708895;83;21031;-74
2021/06/25 10:20:11;;;;;;;7.75;2.50;;;;;;;34.03;30.16;99480.43;1713964;83;21036;-73
2021/06/25 10:22:42;;;;;;;3.72;1.57;;;;;;;34.12;29.49;99471.81;1713730;82;20993;-72
2021/06/25 10:25:10;;;;;;;8.60;2.20;;;;;;;34.18;29.66;99475.61;1698774;83;21012;-74
2021/06/25 10:27:37;;;;;;;18.02;2.92;;;;;;;34.24;30.28;99480.79;1701721;83;21130;-72
2021/06/25 10:30:05;;;;;;;12.15;2.02;;;;;;;34.31;29.56;99480.29;1714083;83;21038;-73
2021/06/25 10:32:33;;;;;;;7.00;2.25;;;;;;;34.32;28.59;99476.14;1723995;82;21576;-73
2021/06/25 10:35:00;;;;;;;12.03;2.15;;;;;;;34.35;29.22;99469.45;1733171;82;21025;-72
2021/06/25 10:37:28;;;;;;;31.85;3.25;;;;;;;34.34;30.59;99475.80;1749130;81;21067;-72
2021/06/25 10:39:57;;;;;;;15.43;3.45;;;;;;;34.35;32.23;99476.59;1712535;82;23383;-75
2021/06/25 10:42:40;;;;;;;10.88;2.80;;;;;;;34.45;31.47;99474.45;1718481;82;21588;-71
2021/06/25 10:45:08;;;;;;;9.58;2.70;;;;;;;34.52;31.51;99460.41;1696350;84;21044;-72
2021/06/25 10:47:34;;;;;;;11.03;2.40;;;;;;;34.43;30.37;99477.02;1679273;84;21087;-72
2021/06/25 10:50:18;;;;;;;16.85;3.10;;;;;;;34.31;31.60;99482.48;1694033;84;21036;-72
2021/06/25 10:53:13;;;;;;;16.27;2.70;;;;;;;34.25;31.38;99490.16;1675324;83;21070;-72
2021/06/25 10:55:47;;;;;;;13.22;3.42;;;;;;;34.19;32.63;99484.98;1726581;83;21027;-71
2021/06/25 10:58:27;;;;;;;7.70;2.40;;;;;;;34.10;33.94;99475.80;1712821;82;21035;-71
2021/06/25 11:00:57;;;;;;;7.80;2.35;;;;;;;33.98;33.46;99481.23;1718782;82;21103;-72
2021/06/25 11:03:42;;;;;;;12.20;2.83;;;;;;;33.91;32.31;99474.48;1699435;83;21615;-72
2021/06/25 11:06:37;;;;;;;11.90;2.12;;;;;;;33.88;31.34;99476.22;1700737;83;21575;-71
2021/06/25 11:09:07;;;;;;;11.20;2.60;;;;;;;33.90;32.62;99470.02;1720682;82;21067;-72
2021/06/25 11:11:34;;;;;;;14.23;2.30;;;;;;;33.96;32.39;99465.25;1719525;82;21054;-72
2021/06/25 11:14:03;;;;;;;11.30;1.87;;;;;;;34.02;32.61;99464.58;1721276;83;21544;-72
2021/06/25 11:16:30;;;;;;;11.10;2.27;;;;;;;34.08;32.33;99460.56;1721424;83;21550;-72
2021/06/25 11:19:01;;;;;;;12.75;3.40;;;;;;;34.14;32.60;99459.90;1726411;82;21264;-71
2021/06/25 11:21:43;;;;;;;12.43;2.37;;;;;;;34.15;32.58;99458.61;1722889;83;21071;-72
2021/06/25 11:24:09;;;;;;;18.85;3.30;;;;;;;34.15;33.28;99455.75;1721807;82;21027;-73
2021/06/25 11:26:51;;;;;;;8.85;2.27;;;;;;;34.16;32.75;99445.89;1726531;83;21247;-73
2021/06/25 11:29:18;;;;;;;9.38;2.60;;;;;;;34.19;32.84;99454.31;1721882;83;21493;-71
2021/06/25 11:31:44;;;;;;;17.10;2.87;;;;;;;34.23;33.23;99456.99;1722273;82;21534;-72
2021/06/25 11:34:11;;;;;;;9.05;2.70;;;;;;;34.23;33.19;99454.13;1720203;82;20977;-71
2021/06/25 11:36:56;;;;;;;19.32;3.37;;;;;;;34.24;33.52;99457.93;1721777;82;20996;-71
2021/06/25 11:39:33;;;;;;;11.50;2.95;;;;;;;34.26;33.62;99462.39;1718600;82;21067;-73
2021/06/25 11:42:12;;;;;;;13.90;2.55;;;;;;;34.23;32.67;99466.36;1718822;82;21035;-72
2021/06/25 11:44:56;;;;;;;13.18;2.30;;;;;;;34.21;32.37;99462.40;1721376;83;21544;-73
2021/06/25 11:47:45;;;;;;;11.08;2.62;;;;;;;34.19;33.30;99464.31;1703218;82;21054;-72
2021/06/25 11:50:18;;;;;;;16.02;3.10;;;;;;;34.14;32.60;99454.19;1697959;83;21067;-72